sensor_id;sensor_type;location;lat;lon;timestamp;temperature;humidity
26583;DHT22;14230;45.382;10.998;2023-02-10T00:01:24;-1.00;99.90
26583;DHT22;14230;45.382;10.998;2023-02-10T00:03:52;-1.10;99.90
26583;DHT22;14230;45.382;10.998;2023-02-10T00:06:22;-1.20;99.90
26583;DHT22;14230;45.382;10.998;2023-02-10T00:08:58;-1.20;99.90
26583;DHT22;14230;45.382;10.998;2023-02-10T00:11:27;-1.20;99.90
26583;DHT22;14230;45.382;10.998;2023-02-10T00:14:15;-1.10;99.90
26583;DHT22;14230;45.382;10.998;2023-02-10T00:16:43;-1.10;99.90
26583;DHT22;14230;45.382;10.998;2023-02-10T00:19:11;-1.10;99.90
26583;DHT22;14230;45.382;10.998;2023-02-10T00:21:38;-1.20;99.90
26583;DHT22;14230;45.382;10.998;2023-02-10T00:24:06;-1.20;99.90
26583;DHT22;14230;45.382;10.998;2023-02-10T00:26:33;-1.10;99.90
26583;DHT22;14230;45.382;10.998;2023-02-10T00:29:01;-1.00;99.90
26583;DHT22;14230;45.382;10.998;2023-02-10T00:31:28;-0.90;99.90
26583;DHT22;14230;45.382;10.998;2023-02-10T00:33:58;-0.80;99.90
26583;DHT22;14230;45.382;10.998;2023-02-10T00:36:27;-0.80;99.90
26583;DHT22;14230;45.382;10.998;2023-02-10T00:38:55;-1.00;99.90
26583;DHT22;14230;45.382;10.998;2023-02-10T00:41:23;-1.10;99.90
26583;DHT22;14230;45.382;10.998;2023-02-10T00:43:51;-1.00;99.90
26583;DHT22;14230;45.382;10.998;2023-02-10T00:46:20;-1.00;99.90
26583;DHT22;14230;45.382;10.998;2023-02-10T00:48:49;-1.00;99.90
26583;DHT22;14230;45.382;10.998;2023-02-10T00:51:17;-1.00;99.90
26583;DHT22;14230;45.382;10.998;2023-02-10T00:53:46;-1.00;99.90
26583;DHT22;14230;45.382;10.998;2023-02-10T00:56:18;-1.00;99.90
26583;DHT22;14230;45.382;10.998;2023-02-10T00:58:47;-1.00;99.90
26583;DHT22;14230;45.382;10.998;2023-02-10T01:01:15;-1.00;99.90
26583;DHT22;14230;45.382;10.998;2023-02-10T01:03:42;-1.00;99.90
26583;DHT22;14230;45.382;10.998;2023-02-10T01:06:11;-1.10;99.90
26583;DHT22;14230;45.382;10.998;2023-02-10T01:08:41;-1.20;99.90
26583;DHT22;14230;45.382;10.998;2023-02-10T01:11:10;-1.20;99.90
26583;DHT22;14230;45.382;10.998;2023-02-10T01:13:40;-1.10;99.90
26583;DHT22;14230;45.382;10.998;2023-02-10T01:16:13;-1.10;99.90
26583;DHT22;14230;45.382;10.998;2023-02-10T01:18:43;-1.20;99.90
26583;DHT22;14230;45.382;10.998;2023-02-10T01:21:16;-1.40;99.90
26583;DHT22;14230;45.382;10.998;2023-02-10T01:23:46;-1.60;99.90
26583;DHT22;14230;45.382;10.998;2023-02-10T01:26:14;-1.70;99.90
26583;DHT22;14230;45.382;10.998;2023-02-10T01:28:42;-1.90;99.90
26583;DHT22;14230;45.382;10.998;2023-02-10T01:31:18;-2.00;99.90
26583;DHT22;14230;45.382;10.998;2023-02-10T01:33:49;-2.10;99.90
26583;DHT22;14230;45.382;10.998;2023-02-10T01:36:20;-2.10;99.90
26583;DHT22;14230;45.382;10.998;2023-02-10T01:38:48;-2.20;99.90
26583;DHT22;14230;45.382;10.998;2023-02-10T01:41:20;-2.20;99.90
26583;DHT22;14230;45.382;10.998;2023-02-10T01:46:22;-2.00;99.90
26583;DHT22;14230;45.382;10.998;2023-02-10T01:48:50;-1.90;99.90
26583;DHT22;14230;45.382;10.998;2023-02-10T01:51:24;-2.00;99.90
26583;DHT22;14230;45.382;10.998;2023-02-10T01:53:53;-1.90;99.90
26583;DHT22;14230;45.382;10.998;2023-02-10T01:56:20;-1.80;99.90
26583;DHT22;14230;45.382;10.998;2023-02-10T01:58:48;-1.80;99.90
26583;DHT22;14230;45.382;10.998;2023-02-10T02:01:16;-1.90;99.90
26583;DHT22;14230;45.382;10.998;2023-02-10T02:03:45;-1.90;99.90
26583;DHT22;14230;45.382;10.998;2023-02-10T02:06:12;-1.80;99.90
26583;DHT22;14230;45.382;10.998;2023-02-10T02:08:40;-1.90;99.90
26583;DHT22;14230;45.382;10.998;2023-02-10T02:31:04;-2.20;99.90
26583;DHT22;14230;45.382;10.998;2023-02-10T02:33:55;-2.20;99.90
26583;DHT22;14230;45.382;10.998;2023-02-10T02:36:34;-2.20;99.90
26583;DHT22;14230;45.382;10.998;2023-02-10T02:39:04;-2.10;99.90
26583;DHT22;14230;45.382;10.998;2023-02-10T02:41:34;-2.10;99.90
26583;DHT22;14230;45.382;10.998;2023-02-10T02:44:04;-2.20;99.90
26583;DHT22;14230;45.382;10.998;2023-02-10T02:52:03;-2.20;99.90
26583;DHT22;14230;45.382;10.998;2023-02-10T02:54:34;-2.20;99.90
26583;DHT22;14230;45.382;10.998;2023-02-10T02:57:45;-2.20;99.90
26583;DHT22;14230;45.382;10.998;2023-02-10T03:00:26;-2.00;99.90
26583;DHT22;14230;45.382;10.998;2023-02-10T03:02:55;-1.90;99.90
26583;DHT22;14230;45.382;10.998;2023-02-10T03:05:28;-1.80;99.90
26583;DHT22;14230;45.382;10.998;2023-02-10T03:07:56;-1.80;99.90
26583;DHT22;14230;45.382;10.998;2023-02-10T03:10:24;-1.80;99.90
26583;DHT22;14230;45.382;10.998;2023-02-10T03:12:52;-1.90;99.90
26583;DHT22;14230;45.382;10.998;2023-02-10T03:15:19;-2.10;99.90
26583;DHT22;14230;45.382;10.998;2023-02-10T03:17:47;-2.20;99.90
26583;DHT22;14230;45.382;10.998;2023-02-10T03:20:14;-2.30;99.90
26583;DHT22;14230;45.382;10.998;2023-02-10T03:22:42;-2.40;99.90
26583;DHT22;14230;45.382;10.998;2023-02-10T03:25:10;-2.40;99.90
26583;DHT22;14230;45.382;10.998;2023-02-10T03:27:37;-2.50;99.90
26583;DHT22;14230;45.382;10.998;2023-02-10T03:30:05;-2.40;99.90
26583;DHT22;14230;45.382;10.998;2023-02-10T03:32:33;-2.30;99.90
26583;DHT22;14230;45.382;10.998;2023-02-10T03:35:01;-2.30;99.90
26583;DHT22;14230;45.382;10.998;2023-02-10T03:37:28;-2.40;99.90
26583;DHT22;14230;45.382;10.998;2023-02-10T03:39:56;-2.40;99.90
26583;DHT22;14230;45.382;10.998;2023-02-10T03:42:23;-2.40;99.90
26583;DHT22;14230;45.382;10.998;2023-02-10T03:44:50;-2.40;99.90
26583;DHT22;14230;45.382;10.998;2023-02-10T03:47:18;-2.40;99.90
26583;DHT22;14230;45.382;10.998;2023-02-10T03:49:45;-2.40;99.90
26583;DHT22;14230;45.382;10.998;2023-02-10T03:52:13;-2.40;99.90
26583;DHT22;14230;45.382;10.998;2023-02-10T03:54:40;-2.30;99.90
26583;DHT22;14230;45.382;10.998;2023-02-10T03:57:08;-2.30;99.90
26583;DHT22;14230;45.382;10.998;2023-02-10T03:59:37;-2.40;99.90
26583;DHT22;14230;45.382;10.998;2023-02-10T04:02:05;-2.50;99.90
26583;DHT22;14230;45.382;10.998;2023-02-10T04:04:32;-2.50;99.90
26583;DHT22;14230;45.382;10.998;2023-02-10T04:07:01;-2.60;99.90
26583;DHT22;14230;45.382;10.998;2023-02-10T04:09:29;-2.60;99.90
26583;DHT22;14230;45.382;10.998;2023-02-10T04:11:57;-2.60;99.90
26583;DHT22;14230;45.382;10.998;2023-02-10T04:14:24;-2.50;99.90
26583;DHT22;14230;45.382;10.998;2023-02-10T04:16:52;-2.50;99.90
26583;DHT22;14230;45.382;10.998;2023-02-10T04:19:19;-2.40;99.90
26583;DHT22;14230;45.382;10.998;2023-02-10T04:21:47;-2.40;99.90
26583;DHT22;14230;45.382;10.998;2023-02-10T04:24:15;-2.50;99.90
26583;DHT22;14230;45.382;10.998;2023-02-10T04:26:43;-2.60;99.90
26583;DHT22;14230;45.382;10.998;2023-02-10T04:29:10;-2.70;99.90
26583;DHT22;14230;45.382;10.998;2023-02-10T04:31:38;-2.70;99.90
26583;DHT22;14230;45.382;10.998;2023-02-10T04:34:05;-2.80;99.90
26583;DHT22;14230;45.382;10.998;2023-02-10T04:36:33;-3.00;99.90
26583;DHT22;14230;45.382;10.998;2023-02-10T04:39:00;-3.00;99.90
26583;DHT22;14230;45.382;10.998;2023-02-10T04:41:28;-3.20;99.90
26583;DHT22;14230;45.382;10.998;2023-02-10T04:43:55;-3.30;99.90
26583;DHT22;14230;45.382;10.998;2023-02-10T04:46:23;-3.30;99.90
26583;DHT22;14230;45.382;10.998;2023-02-10T04:48:53;-3.40;99.90
26583;DHT22;14230;45.382;10.998;2023-02-10T04:51:23;-3.40;99.90
26583;DHT22;14230;45.382;10.998;2023-02-10T04:53:50;-3.50;99.90
26583;DHT22;14230;45.382;10.998;2023-02-10T04:56:18;-3.40;99.90
26583;DHT22;14230;45.382;10.998;2023-02-10T04:58:45;-3.40;99.90
26583;DHT22;14230;45.382;10.998;2023-02-10T05:01:12;-3.30;99.90
26583;DHT22;14230;45.382;10.998;2023-02-10T05:03:40;-3.20;99.90
26583;DHT22;14230;45.382;10.998;2023-02-10T05:06:09;-3.20;99.90
26583;DHT22;14230;45.382;10.998;2023-02-10T05:08:37;-3.10;99.90
26583;DHT22;14230;45.382;10.998;2023-02-10T05:11:13;-3.10;99.90
26583;DHT22;14230;45.382;10.998;2023-02-10T05:13:41;-3.00;99.90
26583;DHT22;14230;45.382;10.998;2023-02-10T05:16:11;-2.90;99.90
26583;DHT22;14230;45.382;10.998;2023-02-10T05:18:39;-3.00;99.90
26583;DHT22;14230;45.382;10.998;2023-02-10T05:21:08;-3.00;99.90
26583;DHT22;14230;45.382;10.998;2023-02-10T05:23:36;-3.10;99.90
26583;DHT22;14230;45.382;10.998;2023-02-10T05:26:04;-3.10;99.90
26583;DHT22;14230;45.382;10.998;2023-02-10T05:28:32;-3.00;99.90
26583;DHT22;14230;45.382;10.998;2023-02-10T05:31:02;-3.00;99.90
26583;DHT22;14230;45.382;10.998;2023-02-10T05:33:32;-3.00;99.90
26583;DHT22;14230;45.382;10.998;2023-02-10T05:36:01;-3.10;99.90
26583;DHT22;14230;45.382;10.998;2023-02-10T05:38:29;-3.30;99.90
26583;DHT22;14230;45.382;10.998;2023-02-10T05:40:56;-3.40;99.90
26583;DHT22;14230;45.382;10.998;2023-02-10T05:43:25;-3.50;99.90
26583;DHT22;14230;45.382;10.998;2023-02-10T05:45:52;-3.50;99.90
26583;DHT22;14230;45.382;10.998;2023-02-10T05:48:20;-3.40;99.90
26583;DHT22;14230;45.382;10.998;2023-02-10T05:50:51;-3.40;99.90
26583;DHT22;14230;45.382;10.998;2023-02-10T05:53:19;-3.30;99.90
26583;DHT22;14230;45.382;10.998;2023-02-10T05:55:46;-3.30;99.90
26583;DHT22;14230;45.382;10.998;2023-02-10T05:58:14;-3.30;99.90
26583;DHT22;14230;45.382;10.998;2023-02-10T06:00:42;-3.30;99.90
26583;DHT22;14230;45.382;10.998;2023-02-10T06:03:09;-3.40;99.90
26583;DHT22;14230;45.382;10.998;2023-02-10T06:05:37;-3.40;99.90
26583;DHT22;14230;45.382;10.998;2023-02-10T06:08:04;-3.30;99.90
26583;DHT22;14230;45.382;10.998;2023-02-10T06:10:32;-3.20;99.90
26583;DHT22;14230;45.382;10.998;2023-02-10T06:12:59;-3.20;99.90
26583;DHT22;14230;45.382;10.998;2023-02-10T06:15:26;-3.30;99.90
26583;DHT22;14230;45.382;10.998;2023-02-10T06:17:54;-3.20;99.90
26583;DHT22;14230;45.382;10.998;2023-02-10T06:20:21;-3.20;99.90
26583;DHT22;14230;45.382;10.998;2023-02-10T06:22:49;-3.20;99.90
26583;DHT22;14230;45.382;10.998;2023-02-10T06:25:16;-3.20;99.90
26583;DHT22;14230;45.382;10.998;2023-02-10T06:27:44;-3.20;99.90
26583;DHT22;14230;45.382;10.998;2023-02-10T06:30:11;-3.10;99.90
26583;DHT22;14230;45.382;10.998;2023-02-10T06:32:39;-3.10;99.90
26583;DHT22;14230;45.382;10.998;2023-02-10T06:35:07;-3.20;99.90
26583;DHT22;14230;45.382;10.998;2023-02-10T06:37:34;-3.20;99.90
26583;DHT22;14230;45.382;10.998;2023-02-10T06:40:04;-3.20;99.90
26583;DHT22;14230;45.382;10.998;2023-02-10T06:42:32;-3.00;99.90
26583;DHT22;14230;45.382;10.998;2023-02-10T06:44:59;-3.00;99.90
26583;DHT22;14230;45.382;10.998;2023-02-10T06:47:27;-3.00;99.90
26583;DHT22;14230;45.382;10.998;2023-02-10T06:49:54;-2.90;99.90
26583;DHT22;14230;45.382;10.998;2023-02-10T06:52:22;-2.90;99.90
26583;DHT22;14230;45.382;10.998;2023-02-10T06:54:51;-2.90;99.90
26583;DHT22;14230;45.382;10.998;2023-02-10T06:57:19;-2.90;99.90
26583;DHT22;14230;45.382;10.998;2023-02-10T06:59:46;-2.80;99.90
26583;DHT22;14230;45.382;10.998;2023-02-10T07:02:14;-2.70;99.90
26583;DHT22;14230;45.382;10.998;2023-02-10T07:04:41;-2.70;99.90
26583;DHT22;14230;45.382;10.998;2023-02-10T07:07:08;-2.60;99.90
26583;DHT22;14230;45.382;10.998;2023-02-10T07:09:36;-2.60;99.90
26583;DHT22;14230;45.382;10.998;2023-02-10T07:12:04;-2.50;99.90
26583;DHT22;14230;45.382;10.998;2023-02-10T07:14:32;-2.40;99.90
26583;DHT22;14230;45.382;10.998;2023-02-10T07:17:00;-1.90;99.90
26583;DHT22;14230;45.382;10.998;2023-02-10T07:19:28;-0.80;99.90
26583;DHT22;14230;45.382;10.998;2023-02-10T07:21:56;0.40;99.90
26583;DHT22;14230;45.382;10.998;2023-02-10T07:24:25;1.70;99.90
26583;DHT22;14230;45.382;10.998;2023-02-10T07:26:55;2.50;99.90
26583;DHT22;14230;45.382;10.998;2023-02-10T07:29:24;3.00;99.90
26583;DHT22;14230;45.382;10.998;2023-02-10T07:31:53;3.60;99.90
26583;DHT22;14230;45.382;10.998;2023-02-10T07:34:21;3.90;99.90
26583;DHT22;14230;45.382;10.998;2023-02-10T07:36:49;4.50;99.90
26583;DHT22;14230;45.382;10.998;2023-02-10T07:39:21;4.80;99.90
26583;DHT22;14230;45.382;10.998;2023-02-10T07:41:49;5.40;99.90
26583;DHT22;14230;45.382;10.998;2023-02-10T07:44:19;5.70;99.90
26583;DHT22;14230;45.382;10.998;2023-02-10T07:46:48;5.40;99.90
26583;DHT22;14230;45.382;10.998;2023-02-10T07:49:18;5.10;99.90
26583;DHT22;14230;45.382;10.998;2023-02-10T07:51:46;4.60;99.90
26583;DHT22;14230;45.382;10.998;2023-02-10T07:54:13;4.90;99.90
26583;DHT22;14230;45.382;10.998;2023-02-10T07:56:41;5.70;99.90
26583;DHT22;14230;45.382;10.998;2023-02-10T07:59:08;5.50;99.90
26583;DHT22;14230;45.382;10.998;2023-02-10T08:01:36;5.30;99.90
26583;DHT22;14230;45.382;10.998;2023-02-10T08:04:09;6.40;99.90
26583;DHT22;14230;45.382;10.998;2023-02-10T08:06:37;7.10;99.90
26583;DHT22;14230;45.382;10.998;2023-02-10T08:09:05;7.40;99.90
26583;DHT22;14230;45.382;10.998;2023-02-10T08:11:33;7.20;99.90
26583;DHT22;14230;45.382;10.998;2023-02-10T08:14:02;8.10;99.90
26583;DHT22;14230;45.382;10.998;2023-02-10T08:16:29;8.30;98.70
26583;DHT22;14230;45.382;10.998;2023-02-10T08:18:57;8.40;98.50
26583;DHT22;14230;45.382;10.998;2023-02-10T08:21:30;8.70;97.40
26583;DHT22;14230;45.382;10.998;2023-02-10T08:23:58;9.00;96.40
26583;DHT22;14230;45.382;10.998;2023-02-10T08:26:25;9.00;95.60
26583;DHT22;14230;45.382;10.998;2023-02-10T08:28:53;8.80;95.60
26583;DHT22;14230;45.382;10.998;2023-02-10T08:31:22;8.90;96.00
26583;DHT22;14230;45.382;10.998;2023-02-10T08:33:49;8.90;95.70
26583;DHT22;14230;45.382;10.998;2023-02-10T08:36:18;9.60;95.10
26583;DHT22;14230;45.382;10.998;2023-02-10T08:38:47;9.70;94.40
26583;DHT22;14230;45.382;10.998;2023-02-10T08:41:15;10.10;93.60
26583;DHT22;14230;45.382;10.998;2023-02-10T08:43:43;10.30;93.10
26583;DHT22;14230;45.382;10.998;2023-02-10T08:46:11;10.40;92.10
26583;DHT22;14230;45.382;10.998;2023-02-10T08:48:38;11.10;91.10
26583;DHT22;14230;45.382;10.998;2023-02-10T08:51:10;11.10;90.00
26583;DHT22;14230;45.382;10.998;2023-02-10T08:53:38;10.10;89.70
26583;DHT22;14230;45.382;10.998;2023-02-10T08:56:08;9.90;90.30
26583;DHT22;14230;45.382;10.998;2023-02-10T08:58:36;9.90;90.40
26583;DHT22;14230;45.382;10.998;2023-02-10T09:01:10;10.70;90.00
26583;DHT22;14230;45.382;10.998;2023-02-10T09:03:39;11.30;87.50
26583;DHT22;14230;45.382;10.998;2023-02-10T09:06:13;11.70;86.00
26583;DHT22;14230;45.382;10.998;2023-02-10T09:08:43;12.50;84.10
26583;DHT22;14230;45.382;10.998;2023-02-10T09:11:11;13.40;82.50
26583;DHT22;14230;45.382;10.998;2023-02-10T09:13:38;14.30;79.00
26583;DHT22;14230;45.382;10.998;2023-02-10T09:16:06;14.80;76.80
26583;DHT22;14230;45.382;10.998;2023-02-10T09:18:34;15.00;74.80
26583;DHT22;14230;45.382;10.998;2023-02-10T09:21:02;15.00;74.30
26583;DHT22;14230;45.382;10.998;2023-02-10T09:23:30;14.80;74.40
26583;DHT22;14230;45.382;10.998;2023-02-10T09:25:59;15.00;72.80
26583;DHT22;14230;45.382;10.998;2023-02-10T09:28:27;15.20;71.50
26583;DHT22;14230;45.382;10.998;2023-02-10T09:30:55;15.80;69.60
26583;DHT22;14230;45.382;10.998;2023-02-10T09:33:23;15.50;69.20
26583;DHT22;14230;45.382;10.998;2023-02-10T09:35:50;15.70;68.60
26583;DHT22;14230;45.382;10.998;2023-02-10T09:38:18;16.10;66.40
26583;DHT22;14230;45.382;10.998;2023-02-10T09:46:26;16.40;62.90
26583;DHT22;14230;45.382;10.998;2023-02-10T09:54:26;15.90;61.50
26583;DHT22;14230;45.382;10.998;2023-02-10T09:57:11;16.20;62.10
26583;DHT22;14230;45.382;10.998;2023-02-10T09:59:41;16.10;62.50
26583;DHT22;14230;45.382;10.998;2023-02-10T10:02:18;15.90;61.60
26583;DHT22;14230;45.382;10.998;2023-02-10T10:04:48;14.90;62.70
26583;DHT22;14230;45.382;10.998;2023-02-10T10:07:35;15.40;62.80
26583;DHT22;14230;45.382;10.998;2023-02-10T10:10:15;15.40;61.50
26583;DHT22;14230;45.382;10.998;2023-02-10T10:12:47;14.90;61.60
26583;DHT22;14230;45.382;10.998;2023-02-10T10:15:16;14.60;61.20
26583;DHT22;14230;45.382;10.998;2023-02-10T10:17:57;14.20;61.60
26583;DHT22;14230;45.382;10.998;2023-02-10T10:23:15;14.60;63.70
26583;DHT22;14230;45.382;10.998;2023-02-10T10:26:05;14.80;61.60
26583;DHT22;14230;45.382;10.998;2023-02-10T10:31:32;13.60;62.90
26583;DHT22;14230;45.382;10.998;2023-02-10T10:36:55;12.80;62.20
26583;DHT22;14230;45.382;10.998;2023-02-10T10:39:38;13.40;60.60
26583;DHT22;14230;45.382;10.998;2023-02-10T10:44:48;12.70;60.40
26583;DHT22;14230;45.382;10.998;2023-02-10T10:50:21;10.90;65.40
26583;DHT22;14230;45.382;10.998;2023-02-10T10:52:53;9.70;67.10
26583;DHT22;14230;45.382;10.998;2023-02-10T10:55:39;9.30;70.70
26583;DHT22;14230;45.382;10.998;2023-02-10T11:00:50;9.10;72.80
26583;DHT22;14230;45.382;10.998;2023-02-10T11:03:18;8.90;73.80
26583;DHT22;14230;45.382;10.998;2023-02-10T11:06:05;8.70;72.30
26583;DHT22;14230;45.382;10.998;2023-02-10T11:08:55;8.50;73.50
26583;DHT22;14230;45.382;10.998;2023-02-10T11:11:37;8.30;74.60
26583;DHT22;14230;45.382;10.998;2023-02-10T11:14:21;8.10;75.10
26583;DHT22;14230;45.382;10.998;2023-02-10T11:16:53;7.90;75.90
26583;DHT22;14230;45.382;10.998;2023-02-10T11:19:28;7.70;77.10
26583;DHT22;14230;45.382;10.998;2023-02-10T11:22:14;7.60;78.50
26583;DHT22;14230;45.382;10.998;2023-02-10T11:24:49;7.60;78.80
26583;DHT22;14230;45.382;10.998;2023-02-10T11:27:18;7.40;78.80
26583;DHT22;14230;45.382;10.998;2023-02-10T11:29:51;7.40;80.10
26583;DHT22;14230;45.382;10.998;2023-02-10T11:32:25;7.40;80.40
26583;DHT22;14230;45.382;10.998;2023-02-10T11:34:56;7.40;79.60
26583;DHT22;14230;45.382;10.998;2023-02-10T11:37:30;7.40;79.60
26583;DHT22;14230;45.382;10.998;2023-02-10T11:40:00;7.50;79.70
26583;DHT22;14230;45.382;10.998;2023-02-10T11:42:34;7.40;79.50
26583;DHT22;14230;45.382;10.998;2023-02-10T11:45:24;7.40;80.50
26583;DHT22;14230;45.382;10.998;2023-02-10T11:48:13;7.40;78.50
26583;DHT22;14230;45.382;10.998;2023-02-10T11:50:43;7.30;79.40
26583;DHT22;14230;45.382;10.998;2023-02-10T11:53:25;7.40;79.90
26583;DHT22;14230;45.382;10.998;2023-02-10T11:55:58;7.40;80.00
26583;DHT22;14230;45.382;10.998;2023-02-10T11:58:40;7.40;80.00
26583;DHT22;14230;45.382;10.998;2023-02-10T12:04:36;7.30;79.00
26583;DHT22;14230;45.382;10.998;2023-02-10T12:12:42;7.40;77.30
26583;DHT22;14230;45.382;10.998;2023-02-10T12:15:23;7.40;75.60
26583;DHT22;14230;45.382;10.998;2023-02-10T12:18:18;7.40;78.40
26583;DHT22;14230;45.382;10.998;2023-02-10T12:21:22;7.50;78.80
26583;DHT22;14230;45.382;10.998;2023-02-10T12:27:21;7.60;77.90
26583;DHT22;14230;45.382;10.998;2023-02-10T12:32:54;7.60;77.80
26583;DHT22;14230;45.382;10.998;2023-02-10T12:35:55;7.70;77.70
26583;DHT22;14230;45.382;10.998;2023-02-10T12:43:59;7.90;74.10
26583;DHT22;14230;45.382;10.998;2023-02-10T12:49:25;7.90;73.00
26583;DHT22;14230;45.382;10.998;2023-02-10T12:52:15;7.90;73.20
26583;DHT22;14230;45.382;10.998;2023-02-10T12:55:05;8.00;73.00
26583;DHT22;14230;45.382;10.998;2023-02-10T12:57:46;8.00;72.20
26583;DHT22;14230;45.382;10.998;2023-02-10T13:00:33;8.10;74.00
26583;DHT22;14230;45.382;10.998;2023-02-10T13:05:51;8.20;74.10
26583;DHT22;14230;45.382;10.998;2023-02-10T13:08:39;8.20;72.20
26583;DHT22;14230;45.382;10.998;2023-02-10T13:11:41;8.20;71.40
26583;DHT22;14230;45.382;10.998;2023-02-10T13:14:23;8.20;71.60
26583;DHT22;14230;45.382;10.998;2023-02-10T13:16:57;8.20;71.20
26583;DHT22;14230;45.382;10.998;2023-02-10T13:22:22;8.30;72.00
26583;DHT22;14230;45.382;10.998;2023-02-10T13:25:02;8.30;71.80
26583;DHT22;14230;45.382;10.998;2023-02-10T13:35:45;8.50;73.30
26583;DHT22;14230;45.382;10.998;2023-02-10T13:38:18;8.50;73.50
26583;DHT22;14230;45.382;10.998;2023-02-10T13:40:49;8.60;72.70
26583;DHT22;14230;45.382;10.998;2023-02-10T13:43:31;8.70;72.60
26583;DHT22;14230;45.382;10.998;2023-02-10T13:46:00;8.70;72.30
26583;DHT22;14230;45.382;10.998;2023-02-10T13:48:31;8.80;72.50
26583;DHT22;14230;45.382;10.998;2023-02-10T13:51:04;8.70;72.40
26583;DHT22;14230;45.382;10.998;2023-02-10T14:01:36;8.70;72.30
26583;DHT22;14230;45.382;10.998;2023-02-10T14:04:25;8.80;73.00
26583;DHT22;14230;45.382;10.998;2023-02-10T14:06:54;8.80;72.50
26583;DHT22;14230;45.382;10.998;2023-02-10T14:11:59;8.90;72.80
26583;DHT22;14230;45.382;10.998;2023-02-10T14:17:19;8.90;73.70
26583;DHT22;14230;45.382;10.998;2023-02-10T14:19:49;8.90;73.70
26583;DHT22;14230;45.382;10.998;2023-02-10T14:22:36;8.90;73.40
26583;DHT22;14230;45.382;10.998;2023-02-10T14:27:55;8.90;73.80
26583;DHT22;14230;45.382;10.998;2023-02-10T14:32:55;8.90;73.70
26583;DHT22;14230;45.382;10.998;2023-02-10T14:35:25;8.90;73.90
26583;DHT22;14230;45.382;10.998;2023-02-10T14:37:58;8.90;74.00
26583;DHT22;14230;45.382;10.998;2023-02-10T14:40:28;8.90;73.90
26583;DHT22;14230;45.382;10.998;2023-02-10T14:42:58;8.90;73.80
26583;DHT22;14230;45.382;10.998;2023-02-10T14:45:28;8.90;73.50
26583;DHT22;14230;45.382;10.998;2023-02-10T14:47:57;8.90;73.80
26583;DHT22;14230;45.382;10.998;2023-02-10T14:50:34;8.80;73.40
26583;DHT22;14230;45.382;10.998;2023-02-10T14:53:03;8.80;73.10
26583;DHT22;14230;45.382;10.998;2023-02-10T14:55:34;8.80;73.50
26583;DHT22;14230;45.382;10.998;2023-02-10T14:58:12;8.80;73.10
26583;DHT22;14230;45.382;10.998;2023-02-10T15:00:42;8.70;73.70
26583;DHT22;14230;45.382;10.998;2023-02-10T15:03:19;8.60;72.90
26583;DHT22;14230;45.382;10.998;2023-02-10T15:05:49;8.60;72.70
26583;DHT22;14230;45.382;10.998;2023-02-10T15:08:24;8.50;72.60
26583;DHT22;14230;45.382;10.998;2023-02-10T15:10:53;8.50;72.80
26583;DHT22;14230;45.382;10.998;2023-02-10T15:13:25;8.40;73.60
26583;DHT22;14230;45.382;10.998;2023-02-10T15:15:54;8.30;72.80
26583;DHT22;14230;45.382;10.998;2023-02-10T15:18:29;8.30;73.20
26583;DHT22;14230;45.382;10.998;2023-02-10T15:21:01;8.20;73.60
26583;DHT22;14230;45.382;10.998;2023-02-10T15:23:29;8.10;74.00
26583;DHT22;14230;45.382;10.998;2023-02-10T15:26:22;8.10;74.00
26583;DHT22;14230;45.382;10.998;2023-02-10T15:29:03;8.00;74.50
26583;DHT22;14230;45.382;10.998;2023-02-10T15:31:33;7.90;74.60
26583;DHT22;14230;45.382;10.998;2023-02-10T15:34:16;7.90;74.70
26583;DHT22;14230;45.382;10.998;2023-02-10T15:36:49;7.80;74.90
26583;DHT22;14230;45.382;10.998;2023-02-10T15:39:22;7.70;75.20
26583;DHT22;14230;45.382;10.998;2023-02-10T15:46:49;7.50;75.30
26583;DHT22;14230;45.382;10.998;2023-02-10T15:49:19;7.40;75.60
26583;DHT22;14230;45.382;10.998;2023-02-10T15:51:54;7.40;75.90
26583;DHT22;14230;45.382;10.998;2023-02-10T15:54:25;7.30;76.00
26583;DHT22;14230;45.382;10.998;2023-02-10T15:57:02;7.20;76.30
26583;DHT22;14230;45.382;10.998;2023-02-10T15:59:31;7.10;76.20
26583;DHT22;14230;45.382;10.998;2023-02-10T16:02:01;7.10;76.50
26583;DHT22;14230;45.382;10.998;2023-02-10T16:04:30;7.00;77.00
26583;DHT22;14230;45.382;10.998;2023-02-10T16:06:58;6.90;77.40
26583;DHT22;14230;45.382;10.998;2023-02-10T16:09:27;6.80;77.80
26583;DHT22;14230;45.382;10.998;2023-02-10T16:11:56;6.70;77.90
26583;DHT22;14230;45.382;10.998;2023-02-10T16:14:24;6.60;78.20
26583;DHT22;14230;45.382;10.998;2023-02-10T16:16:58;6.50;78.80
26583;DHT22;14230;45.382;10.998;2023-02-10T16:19:27;6.50;79.30
26583;DHT22;14230;45.382;10.998;2023-02-10T16:21:55;6.40;79.90
26583;DHT22;14230;45.382;10.998;2023-02-10T16:24:25;6.30;80.20
26583;DHT22;14230;45.382;10.998;2023-02-10T16:26:53;6.20;80.80
26583;DHT22;14230;45.382;10.998;2023-02-10T16:29:23;6.10;80.80
26583;DHT22;14230;45.382;10.998;2023-02-10T16:31:52;6.00;81.10
26583;DHT22;14230;45.382;10.998;2023-02-10T16:34:19;5.90;81.30
26583;DHT22;14230;45.382;10.998;2023-02-10T16:36:47;5.80;81.60
26583;DHT22;14230;45.382;10.998;2023-02-10T16:39:17;5.70;82.00
26583;DHT22;14230;45.382;10.998;2023-02-10T16:41:46;5.60;82.40
26583;DHT22;14230;45.382;10.998;2023-02-10T16:44:14;5.60;83.10
26583;DHT22;14230;45.382;10.998;2023-02-10T16:46:43;5.50;83.30
26583;DHT22;14230;45.382;10.998;2023-02-10T16:49:12;5.40;83.10
26583;DHT22;14230;45.382;10.998;2023-02-10T16:51:40;5.30;83.30
26583;DHT22;14230;45.382;10.998;2023-02-10T16:54:08;5.20;83.80
26583;DHT22;14230;45.382;10.998;2023-02-10T16:56:38;5.10;85.00
26583;DHT22;14230;45.382;10.998;2023-02-10T16:59:08;5.10;86.50
26583;DHT22;14230;45.382;10.998;2023-02-10T17:01:35;4.90;87.60
26583;DHT22;14230;45.382;10.998;2023-02-10T17:04:03;4.90;88.20
26583;DHT22;14230;45.382;10.998;2023-02-10T17:06:30;4.90;90.20
26583;DHT22;14230;45.382;10.998;2023-02-10T17:08:59;4.80;89.20
26583;DHT22;14230;45.382;10.998;2023-02-10T17:11:26;4.80;89.30
26583;DHT22;14230;45.382;10.998;2023-02-10T17:13:53;4.70;88.90
26583;DHT22;14230;45.382;10.998;2023-02-10T17:16:24;4.70;88.70
26583;DHT22;14230;45.382;10.998;2023-02-10T17:18:53;4.60;89.30
26583;DHT22;14230;45.382;10.998;2023-02-10T17:21:20;4.60;89.10
26583;DHT22;14230;45.382;10.998;2023-02-10T17:23:48;4.60;89.30
26583;DHT22;14230;45.382;10.998;2023-02-10T17:26:15;4.50;89.70
26583;DHT22;14230;45.382;10.998;2023-02-10T17:28:43;4.50;90.00
26583;DHT22;14230;45.382;10.998;2023-02-10T17:31:16;4.40;90.20
26583;DHT22;14230;45.382;10.998;2023-02-10T17:33:44;4.40;90.60
26583;DHT22;14230;45.382;10.998;2023-02-10T17:36:25;4.30;90.70
26583;DHT22;14230;45.382;10.998;2023-02-10T17:38:53;4.40;91.30
26583;DHT22;14230;45.382;10.998;2023-02-10T17:41:28;4.40;92.00
26583;DHT22;14230;45.382;10.998;2023-02-10T17:43:57;4.40;91.40